Warner, New Hampshire
Current Conditions -  °F | °C
As of 9:51 AM on Thursday 23 Oct 2014 (Local Time) from KCON Reporting Station
Light Rain Light Rain  
Wind Chill:   Ceiling: 1700
Heat Index:   Visibility: 2mi
Dew Point:   Wind: 12mph
Humidity: 100%   Direction: 360°N
Pressure: 29.75"   Gusts: NA
Location:  43.28°N, 71.82°W
Report Text: KCON 231351Z AUTO 36010KT 2SM -RA BR BKN017 OVC023 09/09 A2975 RMK AO2 SLP075 P0018 T00890089
Loading
Personal Weather Stations






























Interactive Weather Map
Tropical Storm Tracking
New forecast layout! Learn more

10-Day Weather Forecast

Advertisements
Track Severe Weather on mobile